To NAV CANADA Home Page Login to a new session Search on AWWS site Feedback and Comments Disclaimer Vers la page française équivalente Tips FAQ What's new on the site To the Forecasts and Observations / NOTAM section To "File a Flight Plan" website Publications and other links Update of the User's profile FIC Telephone Numbers My Weather Data Folder Route Weather Data Regional Weather Data Local Weather Data To the Forecasts and Observations / NOTAM section
Request Generated 03/27/2015 at 13:09:49 UTC . Weather information available at that time is displayed.

METAR/TAF

MONTREAL/ST-HUBERT/QC    (show WxCam)

SPECI CYHU 271305Z AUTO 02011KT 2SM -SN BKN022 OVC030 M01/M03 A2977
RMK VIS VRB 1 1/4-3 SLP083=
METAR CYHU 271300Z AUTO 02009KT 1 3/4SM -SN OVC020 M01/M02 A2977 RMK
SLP084=
SPECI CYHU 271234Z AUTO 01011KT 1 3/4SM -SN OVC020 M00/M02 A2977 RMK
VIS VRB 1 1/4-3 SLP084=
SPECI CYHU 271226Z AUTO 01009KT 2 1/4SM -SN OVC022 M00/M02 A2977 RMK
VIS VRB 1 1/2-3 SLP084=
SPECI CYHU 271214Z AUTO 36008KT 3SM -SN OVC024 00/M02 A2978 RMK
SLP087=
SPECI CYHU 271212Z AUTO 35009KT 3SM -SN OVC026 00/M01 A2978 RMK
SLP087=
METAR CYHU 271200Z AUTO 01006KT 3SM -SN -UP OVC026 01/M01 A2978 RMK
SLP086=
SPECI CYHU 271157Z AUTO 35007KT 3SM -SN -UP OVC026 01/M01 A2978 RMK
SLP087=
SPECI CYHU 271154Z AUTO 35005KT 3SM -RASN -UP BKN026 OVC032 01/M01
A2978 RMK SLP086=
SPECI CYHU 271151Z AUTO 35007KT 5SM -RA -UP BR BKN026 OVC032 01/M01
A2978 RMK SLP086=
SPECI CYHU 271143Z AUTO 34006KT 5SM -RA BR BKN026 OVC032 01/M01 A2978
RMK SLP086=
SPECI CYHU 271110Z AUTO 02003KT 330V040 3SM BR SCT006 SCT013 SCT024
OVC030 01/M00 A2975 RMK SLP077=
METAR CYHU 271100Z AUTO 02004KT 3SM BR SCT006 BKN013 BKN024 OVC046
01/M00 A2974 RMK SLP073=

TAF AMD CYHU 271243Z 2712/2812 01012KT 11/2SM -SN BR OVC007 TEMPO
2712/2714 6SM -RASN BR SCT007 OVC025
FM271400 01010KT P6SM -SN SCT012 OVC025 TEMPO 2714/2717 2SM -SN
BKN012 OVC025
FM271700 01010KT P6SM OVC030 TEMPO 2717/2721 5SM -SHSN OVC020
FM272300 01010KT P6SM BKN040
BECMG 2801/2803 01010G20KT
FM281100 36010G20KT P6SM SKC
RMK FCST BASED ON AUTO OBS. NXT FCST BY 271800Z=
Your time UTC time
Weather data provided by Environment Canada and NAV CANADA